sensor_id;sensor_type;location;lat;lon;timestamp;temperature;humidity
1413;DHT22;701;52.526;13.408;2022-08-01T00:02:07;22.80;12.80
1413;DHT22;701;52.526;13.408;2022-08-01T00:04:32;22.80;12.80
1413;DHT22;701;52.526;13.408;2022-08-01T00:06:58;22.80;13.10
1413;DHT22;701;52.526;13.408;2022-08-01T00:09:24;22.80;13.10
1413;DHT22;701;52.526;13.408;2022-08-01T00:11:50;22.80;13.30
1413;DHT22;701;52.526;13.408;2022-08-01T00:14:15;22.80;13.60
1413;DHT22;701;52.526;13.408;2022-08-01T00:16:41;22.70;13.60
1413;DHT22;701;52.526;13.408;2022-08-01T00:19:06;22.70;14.10
1413;DHT22;701;52.526;13.408;2022-08-01T00:21:32;22.60;14.10
1413;DHT22;701;52.526;13.408;2022-08-01T00:23:58;22.60;14.10
1413;DHT22;701;52.526;13.408;2022-08-01T00:26:24;22.60;14.70
1413;DHT22;701;52.526;13.408;2022-08-01T00:28:50;22.60;15.20
1413;DHT22;701;52.526;13.408;2022-08-01T00:31:15;22.50;15.60
1413;DHT22;701;52.526;13.408;2022-08-01T00:33:41;22.50;15.80
1413;DHT22;701;52.526;13.408;2022-08-01T00:36:07;22.50;15.80
1413;DHT22;701;52.526;13.408;2022-08-01T00:38:32;22.50;15.90
1413;DHT22;701;52.526;13.408;2022-08-01T00:40:58;22.50;16.40
1413;DHT22;701;52.526;13.408;2022-08-01T00:43:24;22.40;16.50
1413;DHT22;701;52.526;13.408;2022-08-01T00:45:49;22.40;17.00
1413;DHT22;701;52.526;13.408;2022-08-01T00:48:15;22.40;17.70
1413;DHT22;701;52.526;13.408;2022-08-01T00:50:41;22.40;18.00
1413;DHT22;701;52.526;13.408;2022-08-01T00:53:07;22.30;18.50
1413;DHT22;701;52.526;13.408;2022-08-01T00:55:33;22.30;18.90
1413;DHT22;701;52.526;13.408;2022-08-01T00:57:59;22.30;19.20
1413;DHT22;701;52.526;13.408;2022-08-01T01:00:25;22.20;20.00
1413;DHT22;701;52.526;13.408;2022-08-01T01:02:51;22.20;20.60
1413;DHT22;701;52.526;13.408;2022-08-01T01:05:17;22.10;20.50
1413;DHT22;701;52.526;13.408;2022-08-01T01:13:11;22.00;21.70
1413;DHT22;701;52.526;13.408;2022-08-01T01:15:45;21.90;21.60
1413;DHT22;701;52.526;13.408;2022-08-01T01:20:44;21.90;21.90
1413;DHT22;701;52.526;13.408;2022-08-01T01:26:39;21.90;22.40
1413;DHT22;701;52.526;13.408;2022-08-01T01:32:09;21.90;22.40
1413;DHT22;701;52.526;13.408;2022-08-01T01:34:40;21.90;22.60
1413;DHT22;701;52.526;13.408;2022-08-01T01:37:12;21.90;22.30
1413;DHT22;701;52.526;13.408;2022-08-01T01:39:40;21.90;22.50
1413;DHT22;701;52.526;13.408;2022-08-01T01:42:07;21.90;22.70
1413;DHT22;701;52.526;13.408;2022-08-01T01:44:34;21.90;22.70
1413;DHT22;701;52.526;13.408;2022-08-01T01:47:01;21.90;22.80
1413;DHT22;701;52.526;13.408;2022-08-01T01:49:28;21.80;22.80
1413;DHT22;701;52.526;13.408;2022-08-01T01:51:56;21.80;23.00
1413;DHT22;701;52.526;13.408;2022-08-01T01:54:24;21.80;23.00
1413;DHT22;701;52.526;13.408;2022-08-01T01:56:56;21.80;23.10
1413;DHT22;701;52.526;13.408;2022-08-01T01:59:27;21.70;22.90
1413;DHT22;701;52.526;13.408;2022-08-01T02:01:56;21.80;23.00
1413;DHT22;701;52.526;13.408;2022-08-01T02:04:24;21.70;23.00
1413;DHT22;701;52.526;13.408;2022-08-01T02:06:51;21.70;22.80
1413;DHT22;701;52.526;13.408;2022-08-01T02:09:19;21.70;22.90
1413;DHT22;701;52.526;13.408;2022-08-01T02:11:48;21.60;23.00
1413;DHT22;701;52.526;13.408;2022-08-01T02:14:17;21.50;23.80
1413;DHT22;701;52.526;13.408;2022-08-01T02:16:47;21.50;23.30
1413;DHT22;701;52.526;13.408;2022-08-01T02:19:15;21.40;23.30
1413;DHT22;701;52.526;13.408;2022-08-01T02:21:52;21.40;23.50
1413;DHT22;701;52.526;13.408;2022-08-01T02:24:49;21.30;24.40
1413;DHT22;701;52.526;13.408;2022-08-01T02:27:20;21.20;24.30
1413;DHT22;701;52.526;13.408;2022-08-01T02:30:00;21.10;24.30
1413;DHT22;701;52.526;13.408;2022-08-01T02:32:43;21.10;24.70
1413;DHT22;701;52.526;13.408;2022-08-01T02:35:23;21.00;25.20
1413;DHT22;701;52.526;13.408;2022-08-01T02:37:50;21.00;25.20
1413;DHT22;701;52.526;13.408;2022-08-01T02:40:17;20.90;25.20
1413;DHT22;701;52.526;13.408;2022-08-01T02:42:45;20.90;25.30
1413;DHT22;701;52.526;13.408;2022-08-01T02:45:13;20.80;25.50
1413;DHT22;701;52.526;13.408;2022-08-01T02:47:40;20.80;25.80
1413;DHT22;701;52.526;13.408;2022-08-01T02:50:08;20.80;26.10
1413;DHT22;701;52.526;13.408;2022-08-01T02:52:36;20.70;26.20
1413;DHT22;701;52.526;13.408;2022-08-01T02:55:04;20.70;26.50
1413;DHT22;701;52.526;13.408;2022-08-01T02:57:31;20.70;27.00
1413;DHT22;701;52.526;13.408;2022-08-01T02:59:58;20.80;27.30
1413;DHT22;701;52.526;13.408;2022-08-01T03:02:25;20.80;27.00
1413;DHT22;701;52.526;13.408;2022-08-01T03:04:52;20.80;27.10
1413;DHT22;701;52.526;13.408;2022-08-01T03:07:19;20.70;27.30
1413;DHT22;701;52.526;13.408;2022-08-01T03:09:46;20.70;27.40
1413;DHT22;701;52.526;13.408;2022-08-01T03:12:19;20.70;27.70
1413;DHT22;701;52.526;13.408;2022-08-01T03:14:46;20.70;27.70
1413;DHT22;701;52.526;13.408;2022-08-01T03:17:12;20.70;27.70
1413;DHT22;701;52.526;13.408;2022-08-01T03:19:39;20.70;27.70
1413;DHT22;701;52.526;13.408;2022-08-01T03:22:11;20.60;27.50
1413;DHT22;701;52.526;13.408;2022-08-01T03:24:39;20.60;28.10
1413;DHT22;701;52.526;13.408;2022-08-01T03:27:06;20.60;28.10
1413;DHT22;701;52.526;13.408;2022-08-01T03:29:33;20.60;28.10
1413;DHT22;701;52.526;13.408;2022-08-01T03:32:00;20.70;28.40
1413;DHT22;701;52.526;13.408;2022-08-01T03:34:27;20.70;28.40
1413;DHT22;701;52.526;13.408;2022-08-01T03:37:05;20.70;28.20
1413;DHT22;701;52.526;13.408;2022-08-01T03:39:36;20.80;28.20
1413;DHT22;701;52.526;13.408;2022-08-01T03:42:12;20.80;28.00
1413;DHT22;701;52.526;13.408;2022-08-01T03:44:40;20.80;28.10
1413;DHT22;701;52.526;13.408;2022-08-01T03:47:08;20.90;28.00
1413;DHT22;701;52.526;13.408;2022-08-01T03:49:40;20.90;28.10
1413;DHT22;701;52.526;13.408;2022-08-01T03:52:08;21.00;28.30
1413;DHT22;701;52.526;13.408;2022-08-01T03:54:42;21.00;28.30
1413;DHT22;701;52.526;13.408;2022-08-01T03:57:10;21.10;28.50
1413;DHT22;701;52.526;13.408;2022-08-01T03:59:36;21.20;28.00
1413;DHT22;701;52.526;13.408;2022-08-01T04:02:03;21.20;27.90
1413;DHT22;701;52.526;13.408;2022-08-01T04:04:30;21.30;28.00
1413;DHT22;701;52.526;13.408;2022-08-01T04:06:56;21.30;28.10
1413;DHT22;701;52.526;13.408;2022-08-01T04:09:22;21.40;28.10
1413;DHT22;701;52.526;13.408;2022-08-01T04:11:48;21.40;28.10
1413;DHT22;701;52.526;13.408;2022-08-01T04:14:14;21.50;27.90
1413;DHT22;701;52.526;13.408;2022-08-01T04:16:39;21.50;27.90
1413;DHT22;701;52.526;13.408;2022-08-01T04:19:05;21.50;27.70
1413;DHT22;701;52.526;13.408;2022-08-01T04:21:35;21.60;27.60
1413;DHT22;701;52.526;13.408;2022-08-01T04:24:07;21.60;27.80
1413;DHT22;701;52.526;13.408;2022-08-01T04:26:35;21.60;28.00
1413;DHT22;701;52.526;13.408;2022-08-01T04:29:03;21.60;28.30
1413;DHT22;701;52.526;13.408;2022-08-01T04:31:31;21.60;27.70
1413;DHT22;701;52.526;13.408;2022-08-01T04:33:58;21.70;27.70
1413;DHT22;701;52.526;13.408;2022-08-01T04:36:25;21.70;27.70
1413;DHT22;701;52.526;13.408;2022-08-01T04:38:57;21.80;27.80
1413;DHT22;701;52.526;13.408;2022-08-01T04:41:25;21.90;28.00
1413;DHT22;701;52.526;13.408;2022-08-01T04:43:52;22.00;27.80
1413;DHT22;701;52.526;13.408;2022-08-01T04:46:19;22.00;27.60
1413;DHT22;701;52.526;13.408;2022-08-01T04:48:46;22.10;27.50
1413;DHT22;701;52.526;13.408;2022-08-01T04:51:16;22.10;27.50
1413;DHT22;701;52.526;13.408;2022-08-01T04:53:44;22.10;27.50
1413;DHT22;701;52.526;13.408;2022-08-01T04:56:11;22.10;27.50
1413;DHT22;701;52.526;13.408;2022-08-01T04:58:39;22.10;27.40
1413;DHT22;701;52.526;13.408;2022-08-01T05:01:06;22.10;27.30
1413;DHT22;701;52.526;13.408;2022-08-01T05:03:32;22.10;27.30
1413;DHT22;701;52.526;13.408;2022-08-01T05:05:59;22.10;27.30
1413;DHT22;701;52.526;13.408;2022-08-01T05:08:24;22.10;27.50
1413;DHT22;701;52.526;13.408;2022-08-01T05:10:50;22.10;27.60
1413;DHT22;701;52.526;13.408;2022-08-01T05:13:16;22.10;27.80
1413;DHT22;701;52.526;13.408;2022-08-01T05:15:42;22.00;27.80
1413;DHT22;701;52.526;13.408;2022-08-01T05:18:07;22.00;28.50
1413;DHT22;701;52.526;13.408;2022-08-01T05:20:33;22.00;28.60
1413;DHT22;701;52.526;13.408;2022-08-01T05:22:59;21.90;28.80
1413;DHT22;701;52.526;13.408;2022-08-01T05:25:25;21.90;29.10
1413;DHT22;701;52.526;13.408;2022-08-01T05:27:50;21.80;29.10
1413;DHT22;701;52.526;13.408;2022-08-01T05:30:16;21.80;29.20
1413;DHT22;701;52.526;13.408;2022-08-01T05:32:42;21.80;29.30
1413;DHT22;701;52.526;13.408;2022-08-01T05:35:08;21.90;29.50
1413;DHT22;701;52.526;13.408;2022-08-01T05:37:34;21.90;29.50
1413;DHT22;701;52.526;13.408;2022-08-01T05:40:00;21.90;29.40
1413;DHT22;701;52.526;13.408;2022-08-01T05:42:26;22.00;29.70
1413;DHT22;701;52.526;13.408;2022-08-01T05:44:52;22.00;29.40
1413;DHT22;701;52.526;13.408;2022-08-01T05:47:17;22.10;29.30
1413;DHT22;701;52.526;13.408;2022-08-01T05:49:44;22.10;29.20
1413;DHT22;701;52.526;13.408;2022-08-01T05:52:10;22.20;29.10
1413;DHT22;701;52.526;13.408;2022-08-01T05:54:36;22.30;28.70
1413;DHT22;701;52.526;13.408;2022-08-01T05:57:02;22.40;28.80
1413;DHT22;701;52.526;13.408;2022-08-01T05:59:28;22.50;28.80
1413;DHT22;701;52.526;13.408;2022-08-01T06:01:54;22.60;28.70
1413;DHT22;701;52.526;13.408;2022-08-01T06:04:20;22.70;28.30
1413;DHT22;701;52.526;13.408;2022-08-01T06:06:45;22.70;28.10
1413;DHT22;701;52.526;13.408;2022-08-01T06:09:11;22.70;27.90
1413;DHT22;701;52.526;13.408;2022-08-01T06:11:37;22.80;27.70
1413;DHT22;701;52.526;13.408;2022-08-01T06:14:02;22.80;27.40
1413;DHT22;701;52.526;13.408;2022-08-01T06:16:28;22.90;27.30
1413;DHT22;701;52.526;13.408;2022-08-01T06:18:54;22.90;27.10
1413;DHT22;701;52.526;13.408;2022-08-01T06:21:19;22.90;27.10
1413;DHT22;701;52.526;13.408;2022-08-01T06:23:45;22.90;27.10
1413;DHT22;701;52.526;13.408;2022-08-01T06:26:11;22.90;27.00
1413;DHT22;701;52.526;13.408;2022-08-01T06:28:37;22.80;27.10
1413;DHT22;701;52.526;13.408;2022-08-01T06:31:02;22.70;27.20
1413;DHT22;701;52.526;13.408;2022-08-01T06:33:28;22.70;27.20
1413;DHT22;701;52.526;13.408;2022-08-01T06:35:56;22.70;27.30
1413;DHT22;701;52.526;13.408;2022-08-01T06:38:22;22.70;27.40
1413;DHT22;701;52.526;13.408;2022-08-01T06:40:49;22.80;27.50
1413;DHT22;701;52.526;13.408;2022-08-01T06:43:15;23.00;27.40
1413;DHT22;701;52.526;13.408;2022-08-01T06:45:41;23.30;26.80
1413;DHT22;701;52.526;13.408;2022-08-01T06:48:06;23.50;25.90
1413;DHT22;701;52.526;13.408;2022-08-01T06:50:33;23.70;25.40
1413;DHT22;701;52.526;13.408;2022-08-01T06:53:01;23.80;24.90
1413;DHT22;701;52.526;13.408;2022-08-01T06:55:27;23.90;24.50
1413;DHT22;701;52.526;13.408;2022-08-01T06:57:53;24.00;24.00
1413;DHT22;701;52.526;13.408;2022-08-01T07:00:20;24.00;23.60
1413;DHT22;701;52.526;13.408;2022-08-01T07:02:56;24.20;23.40
1413;DHT22;701;52.526;13.408;2022-08-01T07:05:22;24.20;22.80
1413;DHT22;701;52.526;13.408;2022-08-01T07:07:49;24.20;22.70
1413;DHT22;701;52.526;13.408;2022-08-01T07:10:14;24.10;22.60
1413;DHT22;701;52.526;13.408;2022-08-01T07:12:40;24.00;22.50
1413;DHT22;701;52.526;13.408;2022-08-01T07:15:08;23.90;22.90
1413;DHT22;701;52.526;13.408;2022-08-01T07:17:38;23.80;23.10
1413;DHT22;701;52.526;13.408;2022-08-01T07:20:06;23.70;23.20
1413;DHT22;701;52.526;13.408;2022-08-01T07:22:32;23.70;23.40
1413;DHT22;701;52.526;13.408;2022-08-01T07:24:57;23.70;23.60
1413;DHT22;701;52.526;13.408;2022-08-01T07:27:23;23.70;23.30
1413;DHT22;701;52.526;13.408;2022-08-01T07:29:49;23.70;23.30
1413;DHT22;701;52.526;13.408;2022-08-01T07:32:14;23.60;23.30
1413;DHT22;701;52.526;13.408;2022-08-01T07:34:40;23.60;23.40
1413;DHT22;701;52.526;13.408;2022-08-01T07:37:06;23.50;23.60
1413;DHT22;701;52.526;13.408;2022-08-01T07:39:31;23.50;24.10
1413;DHT22;701;52.526;13.408;2022-08-01T07:41:57;23.30;24.70
1413;DHT22;701;52.526;13.408;2022-08-01T07:44:23;23.20;25.30
1413;DHT22;701;52.526;13.408;2022-08-01T07:46:49;23.10;25.60
1413;DHT22;701;52.526;13.408;2022-08-01T07:49:14;23.10;25.60
1413;DHT22;701;52.526;13.408;2022-08-01T07:51:40;23.20;25.70
1413;DHT22;701;52.526;13.408;2022-08-01T07:54:06;23.50;25.30
1413;DHT22;701;52.526;13.408;2022-08-01T07:56:33;23.70;24.10
1413;DHT22;701;52.526;13.408;2022-08-01T07:58:58;23.90;23.20
1413;DHT22;701;52.526;13.408;2022-08-01T08:01:24;24.10;22.60
1413;DHT22;701;52.526;13.408;2022-08-01T08:03:50;24.00;22.30
1413;DHT22;701;52.526;13.408;2022-08-01T08:06:15;24.00;22.20
1413;DHT22;701;52.526;13.408;2022-08-01T08:08:41;23.90;22.10
1413;DHT22;701;52.526;13.408;2022-08-01T08:11:07;23.80;22.20
1413;DHT22;701;52.526;13.408;2022-08-01T08:13:33;23.70;22.30
1413;DHT22;701;52.526;13.408;2022-08-01T08:15:58;23.50;22.20
1413;DHT22;701;52.526;13.408;2022-08-01T08:18:25;23.40;22.60
1413;DHT22;701;52.526;13.408;2022-08-01T08:20:51;23.30;23.00
1413;DHT22;701;52.526;13.408;2022-08-01T08:23:16;23.20;23.40
1413;DHT22;701;52.526;13.408;2022-08-01T08:26:01;23.10;23.60
1413;DHT22;701;52.526;13.408;2022-08-01T08:28:26;23.20;23.70
1413;DHT22;701;52.526;13.408;2022-08-01T08:30:52;23.30;23.50
1413;DHT22;701;52.526;13.408;2022-08-01T08:33:20;23.60;23.20
1413;DHT22;701;52.526;13.408;2022-08-01T08:35:46;23.80;22.40
1413;DHT22;701;52.526;13.408;2022-08-01T08:38:11;24.00;21.90
1413;DHT22;701;52.526;13.408;2022-08-01T08:40:37;24.00;21.20
1413;DHT22;701;52.526;13.408;2022-08-01T08:43:06;24.10;20.90
1413;DHT22;701;52.526;13.408;2022-08-01T08:45:32;24.10;20.50
1413;DHT22;701;52.526;13.408;2022-08-01T08:47:59;24.20;20.30
1413;DHT22;701;52.526;13.408;2022-08-01T08:50:26;24.50;20.00
1413;DHT22;701;52.526;13.408;2022-08-01T08:52:55;24.60;19.20
1413;DHT22;701;52.526;13.408;2022-08-01T08:55:22;24.70;19.30
1413;DHT22;701;52.526;13.408;2022-08-01T08:57:48;24.60;19.00
1413;DHT22;701;52.526;13.408;2022-08-01T09:00:15;24.60;18.90
1413;DHT22;701;52.526;13.408;2022-08-01T09:02:42;24.50;18.60
1413;DHT22;701;52.526;13.408;2022-08-01T09:05:09;24.50;18.50
1413;DHT22;701;52.526;13.408;2022-08-01T09:07:35;24.50;18.30
1413;DHT22;701;52.526;13.408;2022-08-01T09:10:01;24.70;17.80
1413;DHT22;701;52.526;13.408;2022-08-01T09:12:26;25.00;17.10
1413;DHT22;701;52.526;13.408;2022-08-01T09:14:52;25.30;15.90
1413;DHT22;701;52.526;13.408;2022-08-01T09:17:19;25.60;16.00
1413;DHT22;701;52.526;13.408;2022-08-01T09:19:53;25.90;15.00
1413;DHT22;701;52.526;13.408;2022-08-01T09:22:21;26.00;13.40
1413;DHT22;701;52.526;13.408;2022-08-01T09:25:06;26.00;13.40
1413;DHT22;701;52.526;13.408;2022-08-01T09:27:33;25.90;13.20
1413;DHT22;701;52.526;13.408;2022-08-01T09:32:36;25.70;13.70
1413;DHT22;701;52.526;13.408;2022-08-01T09:35:27;25.70;13.80
1413;DHT22;701;52.526;13.408;2022-08-01T09:38:17;25.80;13.80
1413;DHT22;701;52.526;13.408;2022-08-01T09:40:56;25.80;14.00
1413;DHT22;701;52.526;13.408;2022-08-01T09:43:24;25.70;14.10
1413;DHT22;701;52.526;13.408;2022-08-01T09:45:51;25.70;14.30
1413;DHT22;701;52.526;13.408;2022-08-01T09:48:18;25.50;14.60
1413;DHT22;701;52.526;13.408;2022-08-01T09:50:45;25.30;15.00
1413;DHT22;701;52.526;13.408;2022-08-01T09:53:12;25.10;15.70
1413;DHT22;701;52.526;13.408;2022-08-01T09:55:39;25.00;15.70
1413;DHT22;701;52.526;13.408;2022-08-01T09:58:05;25.10;15.70
1413;DHT22;701;52.526;13.408;2022-08-01T10:00:32;25.00;15.70
1413;DHT22;701;52.526;13.408;2022-08-01T10:02:59;25.00;15.70
1413;DHT22;701;52.526;13.408;2022-08-01T10:05:35;24.90;15.60
1413;DHT22;701;52.526;13.408;2022-08-01T10:08:04;25.00;15.80
1413;DHT22;701;52.526;13.408;2022-08-01T10:10:31;25.00;15.90
1413;DHT22;701;52.526;13.408;2022-08-01T10:12:58;25.00;15.70
1413;DHT22;701;52.526;13.408;2022-08-01T10:15:26;25.10;15.70
1413;DHT22;701;52.526;13.408;2022-08-01T10:18:10;25.10;15.70
1413;DHT22;701;52.526;13.408;2022-08-01T10:20:36;25.10;15.70
1413;DHT22;701;52.526;13.408;2022-08-01T10:23:03;25.20;15.80
1413;DHT22;701;52.526;13.408;2022-08-01T10:25:35;25.30;15.50
1413;DHT22;701;52.526;13.408;2022-08-01T10:28:07;25.20;15.40
1413;DHT22;701;52.526;13.408;2022-08-01T10:30:34;25.10;15.70
1413;DHT22;701;52.526;13.408;2022-08-01T10:33:00;25.10;15.70
1413;DHT22;701;52.526;13.408;2022-08-01T10:35:27;25.00;15.70
1413;DHT22;701;52.526;13.408;2022-08-01T10:37:53;25.10;15.70
1413;DHT22;701;52.526;13.408;2022-08-01T10:40:23;25.10;15.70
1413;DHT22;701;52.526;13.408;2022-08-01T10:42:50;25.10;15.70
1413;DHT22;701;52.526;13.408;2022-08-01T10:45:17;25.10;15.70
1413;DHT22;701;52.526;13.408;2022-08-01T10:47:53;25.10;15.70
1413;DHT22;701;52.526;13.408;2022-08-01T10:50:49;25.30;15.80
1413;DHT22;701;52.526;13.408;2022-08-01T10:53:17;25.40;15.30
1413;DHT22;701;52.526;13.408;2022-08-01T10:55:48;25.40;15.00
1413;DHT22;701;52.526;13.408;2022-08-01T10:58:29;25.50;14.70
1413;DHT22;701;52.526;13.408;2022-08-01T11:03:56;25.50;14.60
1413;DHT22;701;52.526;13.408;2022-08-01T11:08:58;25.40;14.70
1413;DHT22;701;52.526;13.408;2022-08-01T11:11:24;25.60;14.50
1413;DHT22;701;52.526;13.408;2022-08-01T11:16:34;25.90;13.40
1413;DHT22;701;52.526;13.408;2022-08-01T11:19:02;26.10;13.20
1413;DHT22;701;52.526;13.408;2022-08-01T11:32:49;25.30;15.80
1413;DHT22;701;52.526;13.408;2022-08-01T11:35:15;25.10;17.50
1413;DHT22;701;52.526;13.408;2022-08-01T11:37:41;24.80;17.90
1413;DHT22;701;52.526;13.408;2022-08-01T11:40:24;24.60;18.50
1413;DHT22;701;52.526;13.408;2022-08-01T11:45:53;24.60;19.20
1413;DHT22;701;52.526;13.408;2022-08-01T11:48:22;24.60;19.20
1413;DHT22;701;52.526;13.408;2022-08-01T11:50:56;24.70;18.80
1413;DHT22;701;52.526;13.408;2022-08-01T11:53:22;24.90;18.40
1413;DHT22;701;52.526;13.408;2022-08-01T11:55:53;25.10;17.90
1413;DHT22;701;52.526;13.408;2022-08-01T11:58:26;25.40;17.30
1413;DHT22;701;52.526;13.408;2022-08-01T12:00:56;25.70;16.30
1413;DHT22;701;52.526;13.408;2022-08-01T12:03:31;26.00;15.50
1413;DHT22;701;52.526;13.408;2022-08-01T12:05:58;26.40;14.60
1413;DHT22;701;52.526;13.408;2022-08-01T12:08:28;26.70;14.10
1413;DHT22;701;52.526;13.408;2022-08-01T12:10:55;27.10;12.90
1413;DHT22;701;52.526;13.408;2022-08-01T12:13:21;27.50;12.00
1413;DHT22;701;52.526;13.408;2022-08-01T12:15:48;27.90;11.10
1413;DHT22;701;52.526;13.408;2022-08-01T12:18:15;28.20;10.30
1413;DHT22;701;52.526;13.408;2022-08-01T12:20:43;28.40;9.60
1413;DHT22;701;52.526;13.408;2022-08-01T12:23:14;28.60;8.90
1413;DHT22;701;52.526;13.408;2022-08-01T12:25:41;28.60;8.40
1413;DHT22;701;52.526;13.408;2022-08-01T12:28:12;28.50;8.00
1413;DHT22;701;52.526;13.408;2022-08-01T12:30:41;28.30;8.10
1413;DHT22;701;52.526;13.408;2022-08-01T12:33:08;28.00;8.50
1413;DHT22;701;52.526;13.408;2022-08-01T12:35:36;27.80;9.00
1413;DHT22;701;52.526;13.408;2022-08-01T12:38:04;27.80;9.30
1413;DHT22;701;52.526;13.408;2022-08-01T12:40:35;27.80;9.30
1413;DHT22;701;52.526;13.408;2022-08-01T12:43:06;27.90;9.40
1413;DHT22;701;52.526;13.408;2022-08-01T12:45:41;28.00;9.00
1413;DHT22;701;52.526;13.408;2022-08-01T12:48:12;28.10;8.80
1413;DHT22;701;52.526;13.408;2022-08-01T12:50:47;28.20;8.70
1413;DHT22;701;52.526;13.408;2022-08-01T12:53:15;28.40;8.50
1413;DHT22;701;52.526;13.408;2022-08-01T12:55:46;28.60;7.90
1413;DHT22;701;52.526;13.408;2022-08-01T12:58:15;28.80;7.10
1413;DHT22;701;52.526;13.408;2022-08-01T13:00:44;28.90;7.00
1413;DHT22;701;52.526;13.408;2022-08-01T13:03:15;29.10;6.60
1413;DHT22;701;52.526;13.408;2022-08-01T13:05:46;29.20;6.00
1413;DHT22;701;52.526;13.408;2022-08-01T13:08:21;29.20;5.80
1413;DHT22;701;52.526;13.408;2022-08-01T13:10:48;29.20;5.50
1413;DHT22;701;52.526;13.408;2022-08-01T13:13:15;29.00;5.90
1413;DHT22;701;52.526;13.408;2022-08-01T13:15:42;28.80;5.90
1413;DHT22;701;52.526;13.408;2022-08-01T13:18:30;28.50;6.50
1413;DHT22;701;52.526;13.408;2022-08-01T13:21:31;28.10;7.20
1413;DHT22;701;52.526;13.408;2022-08-01T13:24:11;27.70;8.10
1413;DHT22;701;52.526;13.408;2022-08-01T13:26:45;27.40;8.90
1413;DHT22;701;52.526;13.408;2022-08-01T13:29:13;27.30;9.10
1413;DHT22;701;52.526;13.408;2022-08-01T13:31:40;27.30;9.10
1413;DHT22;701;52.526;13.408;2022-08-01T13:34:07;27.40;9.10
1413;DHT22;701;52.526;13.408;2022-08-01T13:36:34;27.50;9.20
1413;DHT22;701;52.526;13.408;2022-08-01T13:39:00;27.50;9.00
1413;DHT22;701;52.526;13.408;2022-08-01T13:41:45;27.60;8.70
1413;DHT22;701;52.526;13.408;2022-08-01T13:44:12;27.60;8.50
1413;DHT22;701;52.526;13.408;2022-08-01T13:46:39;27.50;9.20
1413;DHT22;701;52.526;13.408;2022-08-01T13:49:06;27.20;8.70
1413;DHT22;701;52.526;13.408;2022-08-01T13:51:33;27.10;8.90
1413;DHT22;701;52.526;13.408;2022-08-01T13:53:59;26.90;9.00
1413;DHT22;701;52.526;13.408;2022-08-01T13:56:25;26.70;10.20
1413;DHT22;701;52.526;13.408;2022-08-01T13:58:56;26.50;11.20
1413;DHT22;701;52.526;13.408;2022-08-01T14:01:23;26.40;11.90
1413;DHT22;701;52.526;13.408;2022-08-01T14:03:50;26.30;12.40
1413;DHT22;701;52.526;13.408;2022-08-01T14:06:16;26.30;12.40
1413;DHT22;701;52.526;13.408;2022-08-01T14:08:43;26.30;12.10
1413;DHT22;701;52.526;13.408;2022-08-01T14:11:09;26.40;12.20
1413;DHT22;701;52.526;13.408;2022-08-01T14:13:35;26.40;12.50
1413;DHT22;701;52.526;13.408;2022-08-01T14:16:04;26.50;12.50
1413;DHT22;701;52.526;13.408;2022-08-01T14:18:30;26.70;12.70
1413;DHT22;701;52.526;13.408;2022-08-01T14:20:55;26.90;12.50
1413;DHT22;701;52.526;13.408;2022-08-01T14:23:21;27.20;11.80
1413;DHT22;701;52.526;13.408;2022-08-01T14:25:47;27.40;11.40
1413;DHT22;701;52.526;13.408;2022-08-01T14:28:13;27.50;11.10
1413;DHT22;701;52.526;13.408;2022-08-01T14:30:39;27.70;10.90
1413;DHT22;701;52.526;13.408;2022-08-01T14:33:06;27.80;10.60
1413;DHT22;701;52.526;13.408;2022-08-01T14:35:32;28.10;9.50
1413;DHT22;701;52.526;13.408;2022-08-01T14:37:58;28.40;8.00
1413;DHT22;701;52.526;13.408;2022-08-01T14:40:23;28.60;7.70
1413;DHT22;701;52.526;13.408;2022-08-01T14:42:49;28.80;6.80
1413;DHT22;701;52.526;13.408;2022-08-01T14:45:15;29.00;5.30
1413;DHT22;701;52.526;13.408;2022-08-01T14:47:42;29.20;4.80
1413;DHT22;701;52.526;13.408;2022-08-01T14:50:10;29.30;4.30
1413;DHT22;701;52.526;13.408;2022-08-01T14:52:37;29.40;3.90
1413;DHT22;701;52.526;13.408;2022-08-01T14:55:04;29.30;3.90
1413;DHT22;701;52.526;13.408;2022-08-01T14:57:30;29.10;4.90
1413;DHT22;701;52.526;13.408;2022-08-01T14:59:56;28.80;6.10
1413;DHT22;701;52.526;13.408;2022-08-01T15:02:22;28.50;7.10
1413;DHT22;701;52.526;13.408;2022-08-01T15:04:48;28.10;8.00
1413;DHT22;701;52.526;13.408;2022-08-01T15:07:15;27.80;8.90
1413;DHT22;701;52.526;13.408;2022-08-01T15:09:41;27.60;9.20
1413;DHT22;701;52.526;13.408;2022-08-01T15:12:07;27.40;10.00
1413;DHT22;701;52.526;13.408;2022-08-01T15:14:34;27.20;10.40
1413;DHT22;701;52.526;13.408;2022-08-01T15:17:20;27.10;10.60
1413;DHT22;701;52.526;13.408;2022-08-01T15:19:50;27.00;10.30
1413;DHT22;701;52.526;13.408;2022-08-01T15:22:16;26.90;10.10
1413;DHT22;701;52.526;13.408;2022-08-01T15:24:43;26.90;9.80
1413;DHT22;701;52.526;13.408;2022-08-01T15:27:09;27.00;9.60
1413;DHT22;701;52.526;13.408;2022-08-01T15:29:36;27.00;9.30
1413;DHT22;701;52.526;13.408;2022-08-01T15:32:03;27.00;9.10
1413;DHT22;701;52.526;13.408;2022-08-01T15:34:30;26.90;9.00
1413;DHT22;701;52.526;13.408;2022-08-01T15:36:56;27.00;8.90
1413;DHT22;701;52.526;13.408;2022-08-01T15:39:21;27.00;8.90
1413;DHT22;701;52.526;13.408;2022-08-01T15:41:47;27.00;8.90
1413;DHT22;701;52.526;13.408;2022-08-01T15:44:13;26.90;8.80
1413;DHT22;701;52.526;13.408;2022-08-01T15:46:39;26.90;8.80
1413;DHT22;701;52.526;13.408;2022-08-01T15:49:06;26.70;8.80
1413;DHT22;701;52.526;13.408;2022-08-01T15:51:32;26.60;8.70
1413;DHT22;701;52.526;13.408;2022-08-01T15:53:58;26.50;8.70
1413;DHT22;701;52.526;13.408;2022-08-01T15:56:29;26.40;8.90
1413;DHT22;701;52.526;13.408;2022-08-01T15:58:55;26.40;9.10
1413;DHT22;701;52.526;13.408;2022-08-01T16:01:21;26.40;9.20
1413;DHT22;701;52.526;13.408;2022-08-01T16:03:47;26.40;9.10
1413;DHT22;701;52.526;13.408;2022-08-01T16:06:13;26.40;8.90
1413;DHT22;701;52.526;13.408;2022-08-01T16:08:39;26.40;8.70
1413;DHT22;701;52.526;13.408;2022-08-01T16:11:04;26.40;8.60
1413;DHT22;701;52.526;13.408;2022-08-01T16:13:30;26.50;8.60
1413;DHT22;701;52.526;13.408;2022-08-01T16:15:56;26.50;8.60
1413;DHT22;701;52.526;13.408;2022-08-01T16:18:24;26.50;8.70
1413;DHT22;701;52.526;13.408;2022-08-01T16:20:49;26.50;9.20
1413;DHT22;701;52.526;13.408;2022-08-01T16:23:15;26.40;8.60
1413;DHT22;701;52.526;13.408;2022-08-01T16:25:41;26.30;8.50
1413;DHT22;701;52.526;13.408;2022-08-01T16:28:08;26.30;8.50
1413;DHT22;701;52.526;13.408;2022-08-01T16:30:35;26.30;8.50
1413;DHT22;701;52.526;13.408;2022-08-01T16:33:01;26.20;8.50
1413;DHT22;701;52.526;13.408;2022-08-01T16:35:27;26.10;8.40
1413;DHT22;701;52.526;13.408;2022-08-01T16:37:53;26.00;8.40
1413;DHT22;701;52.526;13.408;2022-08-01T16:40:18;26.00;8.40
1413;DHT22;701;52.526;13.408;2022-08-01T16:42:44;25.90;8.70
1413;DHT22;701;52.526;13.408;2022-08-01T16:45:10;25.90;8.80
1413;DHT22;701;52.526;13.408;2022-08-01T16:47:36;25.80;9.00
1413;DHT22;701;52.526;13.408;2022-08-01T16:50:03;25.80;9.00